createdAt,value
2022-11-22T00:02:20.097Z,5.59
2022-11-22T00:05:22.875Z,5.65
2022-11-22T00:08:26.052Z,5.87
2022-11-22T00:11:30.315Z,5.87
2022-11-22T00:14:33.230Z,5.80
2022-11-22T00:17:36.634Z,5.72
2022-11-22T00:20:39.359Z,5.83
2022-11-22T00:23:43.025Z,5.93
2022-11-22T00:26:47.102Z,5.94
2022-11-22T00:29:50.075Z,5.78
2022-11-22T00:32:52.857Z,6.02
2022-11-22T00:35:55.959Z,6.05
2022-11-22T00:38:58.683Z,6.01
2022-11-22T00:42:03.523Z,6.15
2022-11-22T00:45:07.263Z,5.93
2022-11-22T00:48:10.635Z,5.91
2022-11-22T00:51:13.373Z,6.04
2022-11-22T00:54:16.152Z,6.15
2022-11-22T00:57:20.256Z,6.02
2022-11-22T01:00:23.201Z,6.02
2022-11-22T01:03:26.334Z,6.20
2022-11-22T01:06:29.147Z,6.21
2022-11-22T01:09:32.321Z,6.22
2022-11-22T01:12:36.697Z,6.17
2022-11-22T01:15:39.599Z,6.17
2022-11-22T01:18:42.332Z,6.13
2022-11-22T01:21:45.202Z,6.13
2022-11-22T01:24:48.075Z,6.17
2022-11-22T01:27:52.198Z,6.25
2022-11-22T01:30:55.943Z,6.18
2022-11-22T01:33:59.369Z,6.06
2022-11-22T01:37:02.189Z,5.99
2022-11-22T01:40:05.462Z,6.11
2022-11-22T01:43:17.513Z,6.11
2022-11-22T01:46:31.036Z,6.17
2022-11-22T01:49:41.208Z,6.27
2022-11-22T01:52:43.992Z,6.25
2022-11-22T01:55:47.113Z,6.29
2022-11-22T01:58:54.756Z,6.33
2022-11-22T02:01:58.464Z,6.31
2022-11-22T02:05:03.930Z,6.31
2022-11-22T02:08:13.456Z,6.32
2022-11-22T02:11:16.611Z,6.37
2022-11-22T02:14:26.429Z,6.33
2022-11-22T02:17:29.207Z,6.29
2022-11-22T02:20:33.129Z,6.31
2022-11-22T02:23:45.610Z,6.30
2022-11-22T02:26:49.708Z,6.31
2022-11-22T02:29:52.704Z,6.29
2022-11-22T02:32:55.397Z,6.27
2022-11-22T02:35:59.111Z,6.20
2022-11-22T02:39:02.088Z,6.21
2022-11-22T02:42:06.356Z,6.19
2022-11-22T02:45:09.617Z,6.25
2022-11-22T02:48:14.179Z,6.28
2022-11-22T02:51:19.972Z,6.25
2022-11-22T02:54:23.238Z,6.21
2022-11-22T02:57:27.321Z,6.24
2022-11-22T03:00:30.050Z,6.24
2022-11-22T03:03:33.579Z,6.25
2022-11-22T03:06:36.313Z,6.24
2022-11-22T03:09:39.519Z,6.23
2022-11-22T03:12:43.765Z,6.22
2022-11-22T03:15:48.168Z,6.20
2022-11-22T03:18:50.932Z,6.15
2022-11-22T03:21:53.736Z,6.08
2022-11-22T03:24:56.499Z,6.02
2022-11-22T03:28:00.607Z,5.94
2022-11-22T03:31:05.850Z,5.96
2022-11-22T03:34:08.819Z,6.08
2022-11-22T03:37:11.601Z,6.02
2022-11-22T03:40:14.812Z,6.16
2022-11-22T03:43:18.906Z,6.01
2022-11-22T03:46:21.695Z,6.03
2022-11-22T03:49:24.426Z,6.02
2022-11-22T03:52:27.218Z,6.05
2022-11-22T03:55:29.872Z,6.06
2022-11-22T03:58:34.629Z,6.05
2022-11-22T04:01:37.376Z,6.03
2022-11-22T04:04:40.164Z,6.05
2022-11-22T04:07:43.330Z,6.09
2022-11-22T04:10:46.058Z,5.99
2022-11-22T04:14:07.491Z,6.04
2022-11-22T04:17:13.362Z,6.16
2022-11-22T04:20:38.177Z,6.06
2022-11-22T04:23:43.031Z,5.96
2022-11-22T04:26:44.751Z,6.05
2022-11-22T04:29:48.819Z,5.94
2022-11-22T04:32:52.624Z,5.80
2022-11-22T04:35:56.010Z,5.70
2022-11-22T04:38:58.721Z,6.01
2022-11-22T04:42:19.291Z,6.05
2022-11-22T04:45:24.229Z,6.12
2022-11-22T04:48:26.933Z,6.07
2022-11-22T04:51:46.953Z,6.04
2022-11-22T04:54:49.992Z,6.12
2022-11-22T04:57:58.856Z,6.02
2022-11-22T05:01:04.133Z,5.90
2022-11-22T05:04:06.877Z,5.80
2022-11-22T05:07:10.235Z,5.66
2022-11-22T05:10:12.963Z,5.58
2022-11-22T05:13:15.633Z,5.45
2022-11-22T05:16:19.747Z,5.38
2022-11-22T05:19:22.422Z,5.37
2022-11-22T05:22:41.974Z,5.22
2022-11-22T05:25:44.736Z,5.25
2022-11-22T05:28:47.529Z,5.12
2022-11-22T05:31:51.972Z,5.19
2022-11-22T05:34:54.736Z,5.20
2022-11-22T05:37:57.845Z,5.18
2022-11-22T05:41:00.554Z,5.13
2022-11-22T05:44:04.354Z,5.15
2022-11-22T05:47:09.416Z,5.04
2022-11-22T05:50:12.250Z,5.09
2022-11-22T05:53:14.935Z,5.05
2022-11-22T05:56:19.575Z,5.08
2022-11-22T05:59:22.571Z,5.02
2022-11-22T06:02:26.854Z,5.01
2022-11-22T06:05:30.294Z,4.95
2022-11-22T06:08:36.716Z,4.78
2022-11-22T06:11:39.442Z,4.70
2022-11-22T06:14:43.708Z,4.85
2022-11-22T06:17:47.985Z,4.87
2022-11-22T06:20:50.689Z,4.90
2022-11-22T06:23:54.911Z,4.77
2022-11-22T06:26:57.624Z,4.83
2022-11-22T06:30:00.381Z,4.81
2022-11-22T06:33:04.991Z,4.88
2022-11-22T06:36:09.268Z,4.95
2022-11-22T06:39:12.020Z,5.15
2022-11-22T06:42:14.689Z,5.29
2022-11-22T06:45:18.066Z,5.37
2022-11-22T06:48:22.235Z,5.56
2022-11-22T06:51:26.464Z,5.72
2022-11-22T06:54:29.202Z,5.83
2022-11-22T06:57:31.959Z,5.73
2022-11-22T07:00:34.717Z,5.75
2022-11-22T07:03:39.512Z,5.70
2022-11-22T07:06:44.315Z,5.51
2022-11-22T07:09:47.024Z,5.43
2022-11-22T07:12:50.204Z,5.31
2022-11-22T07:15:57.273Z,5.24
2022-11-22T07:19:01.508Z,5.32
2022-11-22T07:22:05.437Z,5.02
2022-11-22T07:25:08.794Z,5.26
2022-11-22T07:28:11.524Z,5.33
2022-11-22T07:31:15.631Z,5.37
2022-11-22T07:34:20.292Z,5.39
2022-11-22T07:37:23.032Z,5.37
2022-11-22T07:40:26.012Z,5.36
2022-11-22T07:43:28.892Z,5.48
2022-11-22T07:46:33.345Z,5.43
2022-11-22T07:49:38.967Z,5.43
2022-11-22T07:52:41.680Z,5.29
2022-11-22T07:55:44.468Z,5.42
2022-11-22T07:58:47.477Z,5.54
2022-11-22T08:01:50.436Z,5.54
2022-11-22T08:04:54.668Z,5.60
2022-11-22T08:07:57.689Z,5.63
2022-11-22T08:11:01.146Z,5.69
2022-11-22T08:14:04.539Z,5.79
2022-11-22T08:17:07.327Z,5.83
2022-11-22T08:20:13.191Z,5.87
2022-11-22T08:23:15.927Z,5.93
2022-11-22T08:26:21.112Z,6.06
2022-11-22T08:29:24.340Z,6.03
2022-11-22T08:32:27.133Z,6.03
2022-11-22T08:35:31.344Z,6.09
2022-11-22T08:38:34.562Z,6.25
2022-11-22T08:41:37.255Z,6.36
2022-11-22T08:44:39.986Z,6.39
2022-11-22T08:47:42.685Z,6.42
2022-11-22T08:50:53.311Z,6.53
2022-11-22T08:53:56.874Z,6.52
2022-11-22T08:56:59.607Z,6.64
2022-11-22T09:00:03.776Z,6.71
2022-11-22T09:03:06.499Z,6.74
2022-11-22T09:09:37.689Z,6.72
2022-11-22T09:12:44.743Z,6.72
2022-11-22T09:15:47.687Z,6.75
2022-11-22T09:18:50.704Z,6.70
2022-11-22T09:21:54.803Z,6.86
2022-11-22T09:24:57.542Z,6.94
2022-11-22T09:28:02.617Z,7.00
2022-11-22T09:31:07.440Z,7.10
2022-11-22T09:34:10.172Z,7.08
2022-11-22T09:37:17.226Z,7.12
2022-11-22T09:40:20.356Z,7.17
2022-11-22T09:43:34.565Z,7.14
2022-11-22T09:46:44.401Z,7.18
2022-11-22T09:50:01.143Z,7.25
2022-11-22T09:53:13.166Z,7.32
2022-11-22T09:56:17.713Z,7.42
2022-11-22T09:59:24.712Z,7.41
2022-11-22T10:02:43.523Z,7.47
2022-11-22T10:05:54.171Z,7.64
2022-11-22T10:09:08.218Z,7.72
2022-11-22T10:12:17.585Z,7.85
2022-11-22T10:15:30.325Z,7.96
2022-11-22T10:18:39.530Z,8.09
2022-11-22T10:21:42.451Z,8.21
2022-11-22T10:24:46.691Z,8.31
2022-11-22T10:27:57.656Z,8.39
2022-11-22T10:31:08.908Z,8.49
2022-11-22T10:34:21.012Z,8.58
2022-11-22T10:37:36.173Z,8.67
2022-11-22T10:40:48.313Z,8.69
2022-11-22T10:44:06.279Z,8.76
2022-11-22T10:47:16.751Z,8.83
2022-11-22T10:50:24.820Z,8.90
2022-11-22T10:53:41.913Z,8.93
2022-11-22T10:56:53.907Z,8.98
2022-11-22T11:00:07.153Z,9.02
2022-11-22T11:03:21.916Z,9.10
2022-11-22T11:06:49.875Z,9.17
2022-11-22T11:10:10.787Z,9.22
2022-11-22T11:13:24.444Z,9.32
2022-11-22T11:16:31.218Z,9.41
2022-11-22T11:19:38.793Z,9.51
2022-11-22T11:23:13.117Z,9.58
2022-11-22T11:26:22.147Z,9.64
2022-11-22T11:29:38.473Z,9.63
2022-11-22T11:32:52.830Z,9.63
2022-11-22T11:36:04.873Z,9.60
2022-11-22T11:39:20.938Z,9.51
2022-11-22T11:42:26.952Z,9.60
2022-11-22T11:45:31.259Z,9.63
2022-11-22T11:48:38.877Z,9.64
2022-11-22T11:51:43.940Z,9.56
2022-11-22T11:54:49.717Z,9.67
2022-11-22T11:57:54.204Z,9.67
2022-11-22T12:00:58.793Z,9.67
2022-11-22T12:04:04.593Z,9.66
2022-11-22T12:07:19.362Z,9.68
2022-11-22T12:10:31.612Z,9.67
2022-11-22T12:13:57.616Z,9.64
2022-11-22T12:17:11.347Z,9.63
2022-11-22T12:20:19.605Z,9.60
2022-11-22T12:23:25.565Z,9.60
2022-11-22T12:26:30.084Z,9.61
2022-11-22T12:29:36.330Z,9.65
2022-11-22T12:32:46.244Z,9.65
2022-11-22T12:35:50.854Z,9.64
2022-11-22T12:38:54.576Z,9.63
2022-11-22T12:42:02.202Z,9.65
2022-11-22T12:45:12.882Z,9.71
2022-11-22T12:48:22.728Z,9.73
2022-11-22T12:51:29.724Z,9.76
2022-11-22T12:54:36.030Z,9.81
2022-11-22T12:57:43.752Z,9.83
2022-11-22T13:01:02.336Z,9.79
2022-11-22T13:04:16.217Z,9.76
2022-11-22T13:07:26.610Z,9.75
2022-11-22T13:10:37.520Z,9.72
2022-11-22T13:13:44.771Z,9.71
2022-11-22T13:16:47.712Z,9.64
2022-11-22T13:19:55.227Z,9.57
2022-11-22T13:23:08.928Z,9.55
2022-11-22T13:26:20.633Z,9.55
2022-11-22T13:29:26.507Z,9.53
2022-11-22T13:32:32.417Z,9.53
2022-11-22T13:35:38.066Z,9.55
2022-11-22T13:38:43.569Z,9.55
2022-11-22T13:41:54.138Z,9.56
2022-11-22T13:45:13.683Z,9.57
2022-11-22T13:48:55.310Z,9.57
2022-11-22T13:52:00.757Z,9.58
2022-11-22T13:55:37.235Z,9.53
2022-11-22T13:58:52.798Z,9.48
2022-11-22T14:02:01.202Z,9.48
2022-11-22T14:05:04.721Z,9.43
2022-11-22T14:08:29.312Z,9.38
2022-11-22T14:11:41.867Z,9.33
2022-11-22T14:14:57.123Z,9.30
2022-11-22T14:18:20.430Z,9.18
2022-11-22T14:22:00.976Z,9.12
2022-11-22T14:25:31.339Z,9.04
2022-11-22T14:29:02.294Z,9.00
2022-11-22T14:32:14.588Z,8.97
2022-11-22T14:35:27.787Z,8.89
2022-11-22T14:38:33.405Z,8.83
2022-11-22T14:41:45.159Z,8.74
2022-11-22T14:44:52.128Z,8.68
2022-11-22T14:48:02.685Z,8.61
2022-11-22T14:51:16.263Z,8.55
2022-11-22T14:54:23.497Z,8.51
2022-11-22T14:57:30.555Z,8.48
2022-11-22T15:00:50.479Z,8.39
2022-11-22T15:09:13.288Z,8.20
2022-11-22T15:09:14.156Z,8.32
2022-11-22T15:12:10.067Z,8.12
2022-11-22T16:00:21.719Z,7.51
2022-11-22T16:03:28.010Z,7.63
2022-11-22T16:06:33.198Z,7.66
2022-11-22T16:09:38.516Z,7.74
2022-11-22T16:12:41.502Z,7.77
2022-11-22T16:15:46.627Z,7.73
2022-11-22T16:18:50.782Z,7.77
2022-11-22T16:21:59.183Z,7.77
2022-11-22T16:25:32.662Z,7.81
2022-11-22T16:28:36.392Z,7.84
2022-11-22T16:31:41.324Z,7.82
2022-11-22T16:34:44.285Z,7.80
2022-11-22T16:37:48.559Z,7.79
2022-11-22T16:40:52.624Z,7.73
2022-11-22T16:43:57.400Z,7.66
2022-11-22T16:47:00.973Z,7.60
2022-11-22T16:50:03.860Z,7.58
2022-11-22T16:53:12.314Z,7.51
2022-11-22T16:56:20.549Z,7.52
2022-11-22T16:59:23.295Z,7.61
2022-11-22T17:02:32.761Z,7.60
2022-11-22T17:05:35.584Z,7.63
2022-11-22T17:08:39.643Z,7.68
2022-11-22T17:11:43.865Z,7.74
2022-11-22T17:14:48.445Z,7.82
2022-11-22T17:17:51.161Z,7.91
2022-11-22T17:20:54.504Z,7.95
2022-11-22T17:24:01.105Z,7.98
2022-11-22T17:27:04.207Z,8.03
2022-11-22T17:30:08.462Z,8.04
2022-11-22T17:33:12.246Z,8.02
2022-11-22T17:36:24.297Z,8.00
2022-11-22T17:39:28.634Z,7.99
2022-11-22T17:42:32.863Z,7.96
2022-11-22T17:45:42.513Z,7.95
2022-11-22T17:48:45.293Z,7.95
2022-11-22T17:51:48.058Z,8.00
2022-11-22T17:54:52.131Z,8.04
2022-11-22T17:57:56.061Z,8.09
2022-11-22T18:01:06.384Z,8.14
2022-11-22T18:04:09.183Z,8.16
2022-11-22T18:07:12.440Z,8.16
2022-11-22T18:10:16.646Z,8.22
2022-11-22T18:13:21.914Z,8.27
2022-11-22T18:16:28.517Z,8.26
2022-11-22T18:19:31.762Z,8.34
2022-11-22T18:22:34.724Z,8.35
2022-11-22T18:25:39.348Z,8.33
2022-11-22T18:28:42.677Z,8.32
2022-11-22T18:31:53.909Z,8.31
2022-11-22T18:34:57.058Z,8.34
2022-11-22T18:38:00.381Z,8.35
2022-11-22T18:41:05.860Z,8.35
2022-11-22T18:44:10.029Z,8.38
2022-11-22T18:47:12.819Z,8.42
2022-11-22T18:53:23.260Z,8.41
2022-11-22T18:56:27.773Z,8.42
2022-11-22T18:59:31.270Z,8.43
2022-11-22T19:02:34.271Z,8.43
2022-11-22T19:05:40.012Z,8.44
2022-11-22T19:08:43.491Z,8.43
2022-11-22T19:11:47.759Z,8.42
2022-11-22T19:14:50.570Z,8.38
2022-11-22T19:17:53.749Z,8.39
2022-11-22T19:20:56.632Z,8.39
2022-11-22T19:23:59.646Z,8.37
2022-11-22T19:27:03.744Z,8.36
2022-11-22T19:30:07.875Z,8.37
2022-11-22T19:33:10.576Z,8.36
2022-11-22T19:36:14.639Z,8.37
2022-11-22T19:39:19.859Z,8.36
2022-11-22T19:42:24.015Z,8.37
2022-11-22T19:45:26.763Z,8.36
2022-11-22T19:48:29.879Z,8.36
2022-11-22T19:51:32.881Z,8.32
2022-11-22T19:54:35.772Z,8.24
2022-11-22T19:57:39.851Z,8.26
2022-11-22T20:00:42.820Z,8.19
2022-11-22T20:03:46.323Z,8.10
2022-11-22T20:06:50.487Z,7.99
2022-11-22T20:09:53.675Z,7.93
2022-11-22T20:12:58.334Z,7.90
2022-11-22T20:16:07.342Z,7.91
2022-11-22T20:19:12.479Z,7.95
2022-11-22T20:22:15.282Z,8.00
2022-11-22T20:25:18.572Z,8.00
2022-11-22T20:28:22.607Z,7.98
2022-11-22T20:31:26.019Z,7.98
2022-11-22T20:34:29.661Z,7.98
2022-11-22T20:37:32.776Z,7.96
2022-11-22T20:40:35.681Z,7.74
2022-11-22T20:43:40.590Z,7.90
2022-11-22T20:46:44.441Z,7.86
2022-11-22T20:49:47.248Z,7.82
2022-11-22T20:52:49.934Z,7.78
2022-11-22T20:55:52.990Z,7.61
2022-11-22T20:58:57.024Z,7.76
2022-11-22T21:01:59.822Z,7.64
2022-11-22T21:05:03.584Z,7.56
2022-11-22T21:08:06.824Z,7.45
2022-11-22T21:11:12.736Z,7.38
2022-11-22T21:14:18.102Z,7.34
2022-11-22T21:17:41.897Z,7.28
2022-11-22T21:20:43.603Z,7.22
2022-11-22T21:23:46.360Z,7.23
2022-11-22T21:26:49.071Z,7.17
2022-11-22T21:29:53.229Z,7.17
2022-11-22T21:32:55.980Z,7.08
2022-11-22T21:35:58.675Z,6.99
2022-11-22T21:39:02.095Z,6.93
2022-11-22T21:42:05.080Z,6.87
2022-11-22T21:45:10.378Z,6.85
2022-11-22T21:48:13.320Z,6.91
2022-11-22T21:51:16.124Z,6.95
2022-11-22T21:54:18.992Z,6.98
2022-11-22T21:57:21.812Z,6.94
2022-11-22T22:00:25.924Z,6.90
2022-11-22T22:03:29.834Z,6.80
2022-11-22T22:06:32.974Z,6.85
2022-11-22T22:09:35.655Z,6.79
2022-11-22T22:12:39.539Z,6.71
2022-11-22T22:15:43.666Z,6.61
2022-11-22T22:18:47.169Z,6.39
2022-11-22T22:21:49.946Z,6.50
2022-11-22T22:24:52.624Z,6.50
2022-11-22T22:27:57.313Z,6.43
2022-11-22T22:31:06.361Z,6.38
2022-11-22T22:34:09.091Z,6.26
2022-11-22T22:37:11.815Z,6.15
2022-11-22T22:40:15.870Z,6.05
2022-11-22T22:43:18.572Z,5.96
2022-11-22T22:46:24.789Z,5.95
2022-11-22T22:49:27.611Z,5.84
2022-11-22T22:52:30.297Z,5.78
2022-11-22T22:55:33.027Z,5.74
2022-11-22T22:58:36.847Z,5.65
2022-11-22T23:01:40.959Z,5.57
2022-11-22T23:04:43.733Z,5.49
2022-11-22T23:07:46.653Z,5.41
2022-11-22T23:10:49.417Z,5.32
2022-11-22T23:13:52.146Z,5.30
2022-11-22T23:16:58.345Z,5.23
2022-11-22T23:20:02.233Z,5.17
2022-11-22T23:23:04.972Z,5.14
2022-11-22T23:26:10.357Z,5.11
2022-11-22T23:29:13.371Z,5.08
2022-11-22T23:32:17.559Z,5.05
2022-11-22T23:35:20.316Z,4.99
2022-11-22T23:38:23.034Z,4.95
2022-11-22T23:41:26.304Z,4.95
2022-11-22T23:44:29.068Z,4.93
2022-11-22T23:47:33.136Z,4.97
2022-11-22T23:50:37.448Z,4.95
2022-11-22T23:53:40.960Z,4.91
2022-11-22T23:56:43.947Z,4.89
2022-11-22T23:59:46.646Z,4.89
